Terminal Aerodrome Forecast
Issued by NWS Charleston, WV

Current Version | Previous Version | Text Only | Print | Product List | Glossary Off
Versions: 1 2 3 4 5 6 7 8 9 10 11 12 13 14 15 16 17 18 19 20 21 22 23 24 25

000
FTUS41 KRLX 280400 AAA
TAFPKB
TAF AMD
KPKB 280458Z 2805/2824 32009KT 2SM -SN BKN025
      TEMPO 2805/2807 3/4SM -SN BKN013
     FM281100 33006KT P6SM SCT040
     FM281300 33006KT P6SM SKC=

USA.gov is the U.S. government's official web portal to all federal, state and local government web resources and services.